»·PEaware :: ERH824 KSZT-CYXS

ERH824 :: KSZT-CYXS

FLIGHT INFORMATION

Flight Status: Arrived
Operator: Unknown
More flights by this operator :: More flights under this callsign
Pilot: Andrew S. (20703)
Aircraft: EMBRAER ERJ-145
(E145)
More flights by this aircraft type
Origin: KSZT Sandpoint
United States
Destination: CYXS Prince George
Canada
More flights between these airports :: More routes between these airports
Route: EDGES J517 YXC J569 YWL V321 DRAGO
File this flight plan on PilotEdge
Remarks:
Altitude:
(Current/Filed)
34,000ft
Speed:
(Current/Filed)
425kts
Departed: 23-Apr-20 07:37 PM
Arrived: 23-Apr-20 08:57 PM
Distance/Time
Traveled:
406nm/1:19
Distance/Time
To Go:
Arrived

Flight Plot

Page will automatically refresh every two minutes.


Map Options




Map Legend


Flown Route
Filed Route
Departure Airport
Arrival Airport
Navaid (VOR, NDB)
Fix

Horizontal Profiles

Position Reports

Time Latitude Longitude Heading Altitude Ground
Speed
23-Apr-20 19:12 48.298996 -116.558897 116 2135ft 0kts
23-Apr-20 19:13 48.298996 -116.558897 116 2135ft 0kts
23-Apr-20 19:14 48.298996 -116.558897 116 2135ft 0kts
23-Apr-20 19:15 48.298996 -116.558897 116 2135ft 0kts
23-Apr-20 19:16 48.298997 -116.558897 116 2135ft 0kts
23-Apr-20 19:17 48.298997 -116.558897 116 2135ft 0kts
23-Apr-20 19:18 48.298997 -116.558897 116 2135ft 0kts
23-Apr-20 19:19 48.298997 -116.558897 116 2135ft 0kts
23-Apr-20 19:20 48.298997 -116.558897 116 2135ft 0kts
23-Apr-20 19:21 48.298997 -116.558897 116 2135ft 0kts
23-Apr-20 19:22 48.298997 -116.558897 116 2135ft 0kts
23-Apr-20 19:23 48.298980 -116.558835 106 2135ft 0kts
23-Apr-20 19:24 48.299074 -116.558797 307 2135ft 0kts
23-Apr-20 19:25 48.299506 -116.559232 30 2135ft 5kts
23-Apr-20 19:26 48.302770 -116.556151 31 2132ft 13kts
23-Apr-20 19:27 48.303538 -116.555718 334 2134ft 3kts
23-Apr-20 19:28 48.302628 -116.558635 213 2134ft 26kts
23-Apr-20 19:29 48.300562 -116.559836 122 2136ft 8kts
23-Apr-20 19:30 48.298806 -116.559843 213 2136ft 13kts
23-Apr-20 19:31 48.293646 -116.564706 212 2134ft 22kts
23-Apr-20 19:32 48.293183 -116.565127 211 2133ft 0kts
23-Apr-20 19:33 48.293183 -116.565127 211 2133ft 0kts
23-Apr-20 19:34 48.293183 -116.565127 211 2133ft 0kts
23-Apr-20 19:35 48.293054 -116.565357 258 2133ft 4kts
23-Apr-20 19:36 48.294548 -116.564820 32 2135ft 52kts
23-Apr-20 19:37 48.326236 -116.535565 28 3666ft 171kts
23-Apr-20 19:38 48.371243 -116.502329 350 7122ft 185kts
23-Apr-20 19:39 48.422711 -116.508490 354 9955ft 192kts
23-Apr-20 19:40 48.483396 -116.514119 352 11875ft 234kts
23-Apr-20 19:41 48.548896 -116.520238 351 14401ft 239kts
23-Apr-20 19:42 48.616173 -116.526499 351 16688ft 245kts
23-Apr-20 19:43 48.685104 -116.532939 350 18783ft 250kts
23-Apr-20 19:44 48.755406 -116.539526 350 20693ft 255kts
23-Apr-20 19:45 48.834589 -116.546990 351 21531ft 300kts
23-Apr-20 19:46 48.918306 -116.554843 350 23385ft 305kts
23-Apr-20 19:47 49.000281 -116.574461 311 24779ft 299kts
23-Apr-20 19:48 49.055448 -116.671338 315 26112ft 310kts
23-Apr-20 19:49 49.121615 -116.760599 315 27308ft 323kts
23-Apr-20 19:50 49.189942 -116.852221 315 28622ft 330kts
23-Apr-20 19:51 49.258791 -116.944902 315 29947ft 331kts
23-Apr-20 19:52 49.327867 -117.038205 315 31216ft 331kts
23-Apr-20 19:53 49.396694 -117.131572 316 32390ft 330kts
23-Apr-20 19:54 49.466068 -117.226020 316 33273ft 335kts
23-Apr-20 19:55 49.536060 -117.321694 316 33973ft 342kts
23-Apr-20 19:56 49.609550 -117.422578 316 33983ft 366kts
23-Apr-20 19:57 49.687974 -117.530687 316 33980ft 388kts
23-Apr-20 19:58 49.770471 -117.644906 316 33971ft 400kts
23-Apr-20 19:59 49.850594 -117.756425 315 33980ft 398kts
23-Apr-20 20:00 49.932513 -117.870947 315 33979ft 397kts
23-Apr-20 20:01 50.009660 -117.979286 315 33984ft 396kts
23-Apr-20 20:02 50.091492 -118.094744 315 34001ft 395kts
23-Apr-20 20:03 50.172027 -118.208943 315 34010ft 396kts
23-Apr-20 20:04 50.253337 -118.324772 315 34008ft 396kts
23-Apr-20 20:05 50.334733 -118.441296 315 34006ft 396kts
23-Apr-20 20:06 50.416053 -118.558306 315 34005ft 396kts
23-Apr-20 20:07 50.496080 -118.673997 315 34022ft 395kts
23-Apr-20 20:08 50.575966 -118.789968 315 34010ft 396kts
23-Apr-20 20:09 50.656623 -118.907529 315 34029ft 395kts
23-Apr-20 20:10 50.728319 -119.037133 308 34055ft 391kts
23-Apr-20 20:11 50.799531 -119.166580 311 34057ft 390kts
23-Apr-20 20:12 50.864453 -119.304324 307 34065ft 389kts
23-Apr-20 20:13 50.931910 -119.438116 308 34056ft 389kts
23-Apr-20 20:14 50.999916 -119.573409 309 34034ft 391kts
23-Apr-20 20:15 51.067824 -119.709487 308 34033ft 393kts
23-Apr-20 20:16 51.134189 -119.842971 308 34042ft 396kts
23-Apr-20 20:17 51.202491 -119.981082 308 34040ft 398kts
23-Apr-20 20:18 51.271518 -120.121298 308 34037ft 400kts
23-Apr-20 20:19 51.340215 -120.261812 308 34036ft 401kts
23-Apr-20 20:20 51.409077 -120.403314 308 34034ft 402kts
23-Apr-20 20:21 51.478112 -120.545891 308 34032ft 402kts
23-Apr-20 20:22 51.546259 -120.687630 307 34038ft 402kts
23-Apr-20 20:23 51.614478 -120.830148 307 34037ft 402kts
23-Apr-20 20:24 51.682830 -120.973760 307 34035ft 403kts
23-Apr-20 20:25 51.750990 -121.117703 306 34000ft 402kts
23-Apr-20 20:26 51.818838 -121.261863 306 33985ft 401kts
23-Apr-20 20:27 51.886031 -121.405452 306 33983ft 399kts
23-Apr-20 20:28 51.953061 -121.549459 306 33981ft 398kts
23-Apr-20 20:29 52.019448 -121.692900 305 33988ft 397kts
23-Apr-20 20:31 52.085473 -121.836326 305 33987ft 397kts
23-Apr-20 20:32 52.151260 -121.980081 305 33994ft 398kts
23-Apr-20 20:33 52.216668 -122.123754 305 32882ft 384kts
23-Apr-20 20:34 52.310020 -122.190188 342 30356ft 372kts
23-Apr-20 20:35 52.408967 -122.220023 343 27836ft 355kts
23-Apr-20 20:36 52.504495 -122.248704 343 25312ft 345kts
23-Apr-20 20:37 52.596467 -122.276427 343 22823ft 338kts
23-Apr-20 20:38 52.686724 -122.303708 343 20938ft 317kts
23-Apr-20 20:39 52.770803 -122.329289 344 19389ft 299kts
23-Apr-20 20:40 52.851285 -122.353845 344 17857ft 289kts
23-Apr-20 20:41 52.931336 -122.378382 345 16350ft 296kts
23-Apr-20 20:42 53.013334 -122.403589 346 14843ft 301kts
23-Apr-20 20:43 53.096016 -122.429099 346 13341ft 305kts
23-Apr-20 20:44 53.172303 -122.452718 347 11970ft 306kts
23-Apr-20 20:45 53.257898 -122.479326 347 10441ft 307kts
23-Apr-20 20:46 53.338769 -122.504542 348 8888ft 265kts
23-Apr-20 20:46 53.396766 -122.522729 348 7603ft 247kts
23-Apr-20 20:48 53.476938 -122.547905 348 5859ft 252kts
23-Apr-20 20:49 53.544751 -122.569279 348 5200ft 240kts
23-Apr-20 20:49 53.599220 -122.586516 347 5192ft 240kts
23-Apr-20 20:50 53.665507 -122.605324 348 5183ft 231kts
23-Apr-20 20:52 53.734255 -122.624467 348 5019ft 192kts
23-Apr-20 20:52 53.774981 -122.635854 347 4317ft 166kts
23-Apr-20 20:53 53.817071 -122.647642 347 3358ft 141kts
23-Apr-20 20:54 53.853061 -122.656817 351 2630ft 127kts
23-Apr-20 20:55 53.884446 -122.665456 349 2220ft 62kts
23-Apr-20 20:56 53.886801 -122.666127 350 2228ft 0kts

Navigation Log

Ident Type
Flight plan parsing failed, navigation log unavailable